Time;durP1;ratioP1;P1;durP2;ratioP2;P2;SDS_P1;SDS_P2;PMS_P1;PMS_P2;Temp;Humidity;BMP_temperature;BMP_pressure;BME280_temperature;BME280_humidity;BME280_pressure;Samples;Min_cycle;Max_cycle;Signal;HPM_P1;HPM_P2
2023/03/01 00:01:59;;;;;;;21.20;14.63;;;-0.30;99.90;;;;;;4999807;28;20446;-82
2023/03/01 00:04:24;;;;;;;20.10;14.50;;;-0.40;99.90;;;;;;5027898;28;20089;-82
2023/03/01 00:06:50;;;;;;;23.85;16.42;;;-0.40;99.90;;;;;;5002534;28;20128;-82
2023/03/01 00:09:17;;;;;;;22.42;15.70;;;-0.50;99.90;;;;;;5044717;28;20053;-82
2023/03/01 00:11:43;;;;;;;20.70;15.13;;;-0.60;99.90;;;;;;4998684;28;20056;-82
2023/03/01 00:14:09;;;;;;;19.55;13.80;;;0.30;99.90;;;;;;5016086;28;20042;-82
2023/03/01 00:16:40;;;;;;;21.58;14.77;;;-0.60;99.90;;;;;;5015423;28;20417;-82
2023/03/01 00:19:11;;;;;;;21.70;15.95;;;-0.70;99.90;;;;;;5015965;28;20143;-82
2023/03/01 00:21:36;;;;;;;23.95;17.10;;;-0.60;99.90;;;;;;5015478;28;20123;-82
2023/03/01 00:24:03;;;;;;;23.60;16.83;;;-0.70;99.90;;;;;;5015553;28;20084;-82
2023/03/01 00:26:29;;;;;;;23.83;16.85;;;-0.70;99.90;;;;;;5014766;28;20053;-83
2023/03/01 00:28:56;;;;;;;25.52;16.10;;;-0.70;99.90;;;;;;5032252;28;20183;-82
2023/03/01 00:31:24;;;;;;;20.88;14.85;;;-0.50;99.90;;;;;;5014963;28;20049;-82
2023/03/01 00:33:56;;;;;;;20.58;15.27;;;-0.60;99.90;;;;;;4999527;28;20103;-82
2023/03/01 00:36:24;;;;;;;28.55;17.70;;;0.00;99.90;;;;;;5015050;28;20135;-82
2023/03/01 00:38:50;;;;;;;36.35;23.92;;;-0.80;99.90;;;;;;5032015;28;20041;-82
2023/03/01 00:41:17;;;;;;;25.98;17.25;;;-0.80;99.90;;;;;;4998887;28;20121;-82
2023/03/01 00:43:44;;;;;;;27.85;19.13;;;-0.80;99.90;;;;;;5031951;28;20518;-82
2023/03/01 00:46:13;;;;;;;25.25;18.38;;;-0.40;99.90;;;;;;5015100;28;20096;-82
2023/03/01 00:48:39;;;;;;;23.08;16.38;;;-0.80;99.90;;;;;;5015013;28;20057;-81
2023/03/01 00:51:15;;;;;;;20.77;15.27;;;-0.80;99.90;;;;;;5015352;28;20059;-81
2023/03/01 00:53:42;;;;;;;21.35;15.55;;;-0.20;99.90;;;;;;5015753;28;20126;-82
2023/03/01 00:56:09;;;;;;;22.92;15.60;;;-0.80;99.90;;;;;;5014451;28;20041;-83
2023/03/01 00:58:35;;;;;;;24.50;17.30;;;-0.40;99.90;;;;;;5014752;28;20107;-82
2023/03/01 01:01:16;;;;;;;24.08;16.52;;;-0.30;99.90;;;;;;4998690;28;20053;-82
2023/03/01 01:03:51;;;;;;;25.30;18.13;;;-0.90;99.90;;;;;;5015438;28;20084;-81
2023/03/01 01:06:29;;;;;;;24.67;17.85;;;0.00;99.90;;;;;;4998558;28;20053;-82
2023/03/01 01:08:56;;;;;;;26.33;19.15;;;-0.50;99.90;;;;;;5015064;28;20130;-82
2023/03/01 01:11:23;;;;;;;27.42;18.92;;;-0.50;99.90;;;;;;4997850;28;20045;-81
2023/03/01 01:13:49;;;;;;;26.23;18.45;;;-0.20;99.90;;;;;;5015723;28;20088;-81
2023/03/01 01:16:17;;;;;;;23.05;16.92;;;-0.20;99.90;;;;;;5018750;28;20037;-81
2023/03/01 01:18:43;;;;;;;20.02;16.20;;;-1.10;99.90;;;;;;5035595;28;20038;-81
2023/03/01 01:21:15;;;;;;;24.38;17.17;;;-0.80;99.90;;;;;;5018444;28;20049;-81
2023/03/01 01:23:42;;;;;;;25.48;17.08;;;-1.00;99.90;;;;;;5019169;28;20052;-81
2023/03/01 01:26:21;;;;;;;24.45;17.40;;;-1.00;99.90;;;;;;5017484;28;20143;-82
2023/03/01 01:28:47;;;;;;;24.95;17.70;;;-1.00;99.90;;;;;;5019424;28;20053;-81
2023/03/01 01:31:13;;;;;;;24.42;17.63;;;-0.90;99.90;;;;;;5018359;28;20486;-81
2023/03/01 01:33:39;;;;;;;25.02;17.45;;;-0.90;99.90;;;;;;5018709;28;20045;-81
2023/03/01 01:36:06;;;;;;;25.98;18.70;;;-0.70;99.90;;;;;;5001706;28;20091;-81
2023/03/01 01:38:33;;;;;;;25.60;18.05;;;-1.00;99.90;;;;;;5000796;28;20056;-79
2023/03/01 01:40:58;;;;;;;25.63;17.95;;;-0.70;99.90;;;;;;5018036;28;20053;-81
2023/03/01 01:43:37;;;;;;;29.98;20.95;;;-1.00;99.90;;;;;;5013403;28;20056;-81
2023/03/01 01:46:04;;;;;;;31.90;21.80;;;-1.10;99.90;;;;;;5018380;28;20077;-82
2023/03/01 01:48:53;;;;;;;23.67;18.00;;;-1.20;99.90;;;;;;5018084;28;20059;-81
2023/03/01 01:51:23;;;;;;;27.38;18.65;;;-1.20;99.90;;;;;;5017499;28;20037;-81
2023/03/01 01:53:54;;;;;;;29.83;20.85;;;-1.20;99.90;;;;;;5018574;28;20056;-81
2023/03/01 01:56:21;;;;;;;28.15;20.20;;;-1.20;99.90;;;;;;5017296;28;20540;-81
2023/03/01 01:58:48;;;;;;;26.58;18.88;;;-0.60;99.90;;;;;;5018543;28;20470;-81
2023/03/01 02:01:13;;;;;;;28.23;19.90;;;-0.60;99.90;;;;;;5017651;28;20485;-81
2023/03/01 02:03:42;;;;;;;27.17;19.15;;;-1.00;99.90;;;;;;5001785;28;20041;-81
2023/03/01 02:06:28;;;;;;;25.38;18.30;;;-1.20;99.90;;;;;;5018099;28;20489;-81
2023/03/01 02:08:57;;;;;;;25.83;17.88;;;-1.30;99.90;;;;;;5006482;28;20076;-82
2023/03/01 02:11:23;;;;;;;27.83;18.23;;;-0.60;99.90;;;;;;5017018;28;20077;-81
2023/03/01 02:13:50;;;;;;;24.58;18.15;;;-1.10;99.90;;;;;;5001091;28;20041;-81
2023/03/01 02:16:16;;;;;;;24.25;17.17;;;-1.20;99.90;;;;;;5009668;28;20096;-81
2023/03/01 02:18:43;;;;;;;23.17;17.67;;;-0.70;99.90;;;;;;5017807;28;20084;-81
2023/03/01 02:21:32;;;;;;;24.55;17.67;;;-0.70;99.90;;;;;;5017494;28;20401;-81
2023/03/01 02:24:03;;;;;;;23.60;16.80;;;-1.30;99.90;;;;;;5034091;28;20049;-80
2023/03/01 02:26:56;;;;;;;25.45;17.70;;;-0.20;99.90;;;;;;5016246;28;20405;-81
2023/03/01 02:29:23;;;;;;;24.50;17.92;;;-1.20;99.90;;;;;;5014198;28;20061;-81
2023/03/01 02:31:51;;;;;;;22.38;17.20;;;-1.20;99.90;;;;;;5034102;28;20076;-83
2023/03/01 02:34:28;;;;;;;24.63;17.35;;;-1.20;99.90;;;;;;5000676;28;20081;-82
2023/03/01 02:37:08;;;;;;;23.35;16.60;;;-1.20;99.90;;;;;;5015684;28;20049;-81
2023/03/01 02:39:47;;;;;;;22.92;17.33;;;-1.20;99.90;;;;;;5021268;28;20045;-81
2023/03/01 02:42:20;;;;;;;22.88;16.60;;;-1.20;99.90;;;;;;5017459;28;20061;-82
2023/03/01 02:44:46;;;;;;;24.25;17.08;;;-1.20;99.90;;;;;;5017147;28;20046;-81
2023/03/01 02:47:12;;;;;;;22.60;17.23;;;-0.20;99.90;;;;;;5034015;28;20119;-81
2023/03/01 02:49:37;;;;;;;21.63;16.48;;;-0.20;99.90;;;;;;5016541;28;20436;-81
2023/03/01 02:52:47;;;;;;;26.25;17.75;;;-1.20;99.90;;;;;;5000313;28;20056;-83
2023/03/01 02:55:16;;;;;;;24.95;17.73;;;-1.20;99.90;;;;;;4921814;29;20525;-81
2023/03/01 02:57:45;;;;;;;24.83;17.52;;;-0.90;99.90;;;;;;4937867;29;20075;-82
2023/03/01 03:00:20;;;;;;;25.23;17.55;;;-1.00;99.90;;;;;;4970496;28;20593;-81
2023/03/01 03:02:51;;;;;;;22.38;16.70;;;-1.20;99.90;;;;;;5015637;28;20037;-81
2023/03/01 03:05:27;;;;;;;26.05;17.60;;;-1.30;99.90;;;;;;5016938;28;20053;-81
2023/03/01 03:07:53;;;;;;;26.25;18.05;;;-1.30;99.90;;;;;;5016561;28;20528;-82
2023/03/01 03:10:25;;;;;;;23.70;17.02;;;-0.90;99.90;;;;;;5015848;28;20111;-81
2023/03/01 03:12:53;;;;;;;30.08;20.20;;;-1.30;99.90;;;;;;5016770;28;20049;-81
2023/03/01 03:15:20;;;;;;;27.42;19.58;;;-1.10;99.90;;;;;;5016722;28;20092;-81
2023/03/01 03:17:46;;;;;;;26.15;18.70;;;-1.40;99.90;;;;;;5016315;28;20049;-81
2023/03/01 03:20:18;;;;;;;24.80;18.60;;;-1.40;99.90;;;;;;5016652;28;20081;-81
2023/03/01 03:22:46;;;;;;;25.05;18.27;;;-1.50;99.90;;;;;;5016614;28;20073;-82
2023/03/01 03:25:11;;;;;;;25.52;18.63;;;-1.50;99.90;;;;;;5016082;28;20061;-81
2023/03/01 03:27:42;;;;;;;26.83;19.40;;;-1.50;99.90;;;;;;5010378;28;20385;-81
2023/03/01 03:30:12;;;;;;;25.50;18.15;;;-1.50;99.90;;;;;;5016427;28;20452;-81
2023/03/01 03:32:42;;;;;;;24.58;17.98;;;-1.50;99.90;;;;;;5015950;28;20044;-81
2023/03/01 03:35:09;;;;;;;45.25;28.80;;;-1.00;99.90;;;;;;5016299;28;20297;-80
2023/03/01 03:40:25;;;;;;;35.95;24.88;;;-1.30;99.90;;;;;;5032047;28;20053;-81
2023/03/01 03:42:51;;;;;;;28.15;20.85;;;-1.60;99.90;;;;;;5015882;28;20056;-81
2023/03/01 03:45:17;;;;;;;31.98;21.90;;;-0.80;99.90;;;;;;5015920;28;20037;-81
2023/03/01 03:47:44;;;;;;;28.85;19.90;;;-1.60;99.90;;;;;;4999628;28;20049;-82
2023/03/01 03:50:11;;;;;;;26.90;19.80;;;-1.70;99.90;;;;;;5015734;28;20050;-81
2023/03/01 03:52:37;;;;;;;27.05;18.13;;;-1.70;99.90;;;;;;5015158;28;20103;-81
2023/03/01 03:55:09;;;;;;;23.75;17.52;;;-1.60;99.90;;;;;;4983001;28;20041;-81
2023/03/01 03:57:35;;;;;;;25.13;18.15;;;-1.60;99.90;;;;;;4999818;28;20532;-80
2023/03/01 04:00:03;;;;;;;23.90;17.40;;;-1.30;99.90;;;;;;5015690;28;20135;-81
2023/03/01 04:02:29;;;;;;;25.17;17.50;;;-1.70;99.90;;;;;;4999593;28;20044;-81
2023/03/01 04:04:55;;;;;;;26.27;18.27;;;-0.90;99.90;;;;;;5010792;28;20053;-81
2023/03/01 04:07:20;;;;;;;22.92;16.95;;;-1.40;99.90;;;;;;5013809;28;20473;-81
2023/03/01 04:09:49;;;;;;;24.52;17.58;;;-1.20;99.90;;;;;;5012505;28;20042;-82
2023/03/01 04:12:20;;;;;;;22.67;16.70;;;-1.60;99.90;;;;;;5015626;28;20061;-81
2023/03/01 04:14:46;;;;;;;21.85;17.13;;;-1.60;99.90;;;;;;4968459;28;20072;-81
2023/03/01 04:17:12;;;;;;;24.65;18.23;;;-1.50;99.90;;;;;;5015586;28;20073;-81
2023/03/01 04:19:38;;;;;;;23.20;17.50;;;-1.60;99.90;;;;;;5015115;28;20469;-82
2023/03/01 04:22:09;;;;;;;26.52;18.85;;;-1.60;99.90;;;;;;4999881;28;20045;-80
2023/03/01 04:24:37;;;;;;;24.50;18.25;;;-1.60;99.90;;;;;;5031063;28;20378;-81
2023/03/01 04:27:03;;;;;;;27.67;19.02;;;-1.50;99.90;;;;;;5015814;28;20052;-81
2023/03/01 04:29:29;;;;;;;27.52;19.20;;;-1.70;99.90;;;;;;4998628;28;20045;-81
2023/03/01 04:31:55;;;;;;;27.65;19.55;;;-1.70;99.90;;;;;;5015686;28;20144;-81
2023/03/01 04:34:21;;;;;;;29.10;20.15;;;-1.70;99.90;;;;;;4998968;28;20072;-80
2023/03/01 04:36:46;;;;;;;33.85;21.52;;;-1.80;99.90;;;;;;4995982;28;20128;-81
2023/03/01 04:39:12;;;;;;;32.00;21.67;;;-1.00;99.90;;;;;;4990948;28;20045;-81
2023/03/01 04:41:39;;;;;;;29.23;19.90;;;-2.00;99.90;;;;;;4998090;28;20080;-80
2023/03/01 04:44:05;;;;;;;32.60;22.15;;;-2.00;99.90;;;;;;5014919;28;20046;-81
2023/03/01 04:46:31;;;;;;;31.38;21.15;;;-2.10;99.90;;;;;;5015014;28;20091;-81
2023/03/01 04:48:56;;;;;;;32.97;22.60;;;-2.10;99.90;;;;;;5009032;28;20081;-83
2023/03/01 04:51:22;;;;;;;31.10;21.00;;;-2.10;99.90;;;;;;5012528;28;20041;-81
2023/03/01 04:53:48;;;;;;;36.55;24.33;;;-2.10;99.90;;;;;;5012218;28;20059;-81
2023/03/01 04:56:15;;;;;;;33.35;21.17;;;-2.10;99.90;;;;;;4994321;28;20371;-81
2023/03/01 04:58:41;;;;;;;25.98;19.48;;;-2.20;99.90;;;;;;4995365;28;20061;-81
2023/03/01 05:01:19;;;;;;;25.35;18.52;;;-2.20;99.90;;;;;;5007631;28;20104;-81
2023/03/01 05:03:46;;;;;;;33.97;22.48;;;-2.10;99.90;;;;;;4995748;28;20072;-81
2023/03/01 05:06:13;;;;;;;36.58;24.50;;;-2.10;99.90;;;;;;5012516;28;20081;-81
2023/03/01 05:08:40;;;;;;;30.08;20.67;;;-2.10;99.90;;;;;;4995764;28;20092;-80
2023/03/01 05:11:08;;;;;;;43.35;27.67;;;-2.10;99.90;;;;;;5010862;28;20041;-81
2023/03/01 05:13:38;;;;;;;31.13;21.73;;;-2.10;99.90;;;;;;5011852;28;20041;-81
2023/03/01 05:16:06;;;;;;;30.77;22.77;;;-2.10;99.90;;;;;;5027966;28;20517;-81
2023/03/01 05:18:33;;;;;;;33.80;22.65;;;-2.10;99.90;;;;;;4979569;28;20048;-81
2023/03/01 05:21:06;;;;;;;32.10;21.88;;;-2.10;99.90;;;;;;5011865;28;20504;-80
2023/03/01 05:23:33;;;;;;;28.77;21.00;;;-1.00;99.90;;;;;;4995257;28;20489;-82
2023/03/01 05:26:03;;;;;;;28.48;19.77;;;-2.10;99.90;;;;;;4994240;28;20069;-82
2023/03/01 05:28:30;;;;;;;26.80;19.13;;;-2.10;99.90;;;;;;5011842;28;20061;-81
2023/03/01 05:30:57;;;;;;;27.45;18.98;;;-1.50;99.90;;;;;;4978880;28;20046;-80
2023/03/01 05:33:23;;;;;;;36.30;24.27;;;-2.00;99.90;;;;;;4994674;28;20053;-81
2023/03/01 05:35:50;;;;;;;37.45;24.60;;;-1.20;99.90;;;;;;5011619;28;20126;-80
2023/03/01 05:38:16;;;;;;;36.30;24.13;;;-2.00;99.90;;;;;;5011901;28;20049;-81
2023/03/01 05:40:43;;;;;;;45.08;28.27;;;-1.40;99.90;;;;;;4994437;28;20050;-81
2023/03/01 05:43:10;;;;;;;43.60;27.98;;;-2.10;99.90;;;;;;5011035;28;20045;-79
2023/03/01 05:45:37;;;;;;;34.20;23.65;;;-1.20;99.90;;;;;;4995139;28;20041;-80
2023/03/01 05:48:04;;;;;;;32.17;22.65;;;-1.60;99.90;;;;;;4995245;28;20054;-81
2023/03/01 05:50:34;;;;;;;30.50;21.48;;;-2.10;99.90;;;;;;4994605;28;20066;-81
2023/03/01 05:53:07;;;;;;;27.38;19.75;;;-1.10;99.90;;;;;;4997437;28;20256;-80
2023/03/01 05:55:33;;;;;;;28.55;19.60;;;-2.10;99.90;;;;;;5010597;28;20137;-81
2023/03/01 05:58:01;;;;;;;27.27;19.20;;;-1.40;99.90;;;;;;5011673;28;20049;-81
2023/03/01 06:00:28;;;;;;;26.70;18.33;;;-2.10;99.90;;;;;;5011437;28;20046;-81
2023/03/01 06:02:55;;;;;;;25.30;17.70;;;-2.10;99.90;;;;;;5014488;28;20112;-81
2023/03/01 06:05:21;;;;;;;25.98;18.13;;;-1.80;99.90;;;;;;5014968;28;20050;-81
2023/03/01 06:07:48;;;;;;;25.38;17.88;;;-1.80;99.90;;;;;;5014992;28;20104;-82
2023/03/01 06:10:14;;;;;;;24.38;17.48;;;-1.40;99.90;;;;;;5014058;28;20470;-82
2023/03/01 06:12:42;;;;;;;25.25;17.98;;;-2.10;99.90;;;;;;4979063;28;20049;-81
2023/03/01 06:15:09;;;;;;;24.23;17.45;;;-1.70;99.90;;;;;;5013606;28;20176;-81
2023/03/01 06:17:37;;;;;;;25.23;17.55;;;-2.10;99.90;;;;;;5014690;28;20064;-81
2023/03/01 06:20:12;;;;;;;27.13;18.30;;;-1.00;99.90;;;;;;5014248;28;20109;-80
2023/03/01 06:22:38;;;;;;;22.95;17.15;;;-2.00;99.90;;;;;;5014690;28;20077;-81
2023/03/01 06:25:05;;;;;;;25.25;17.58;;;-1.90;99.90;;;;;;5029288;28;20409;-81
2023/03/01 06:27:30;;;;;;;32.10;22.08;;;-2.10;99.90;;;;;;5014151;28;20056;-81
2023/03/01 06:29:56;;;;;;;26.98;18.38;;;-2.10;99.90;;;;;;5013913;28;20042;-79
2023/03/01 06:32:22;;;;;;;26.70;18.77;;;-1.30;99.90;;;;;;5013494;28;20038;-81
2023/03/01 06:34:48;;;;;;;24.25;16.77;;;-2.20;99.90;;;;;;4997212;28;20208;-81
2023/03/01 06:37:13;;;;;;;25.13;17.35;;;-1.40;99.90;;;;;;5013543;28;20394;-81
2023/03/01 06:39:39;;;;;;;31.02;21.23;;;-2.10;99.90;;;;;;5010085;28;20134;-81
2023/03/01 06:42:08;;;;;;;33.88;22.90;;;-1.80;99.90;;;;;;5013349;28;20054;-80
2023/03/01 06:44:33;;;;;;;35.22;23.70;;;-2.00;99.90;;;;;;5013223;28;20057;-81
2023/03/01 06:46:59;;;;;;;36.38;24.67;;;-1.30;99.90;;;;;;5013383;28;20084;-81
2023/03/01 06:49:25;;;;;;;39.45;25.83;;;-0.90;99.90;;;;;;5008739;28;20049;-79
2023/03/01 06:51:51;;;;;;;36.75;25.50;;;-1.80;99.90;;;;;;4997496;28;20505;-81
2023/03/01 06:54:17;;;;;;;36.47;25.33;;;-1.50;99.90;;;;;;5004849;28;20128;-84
2023/03/01 06:56:46;;;;;;;31.35;22.00;;;-1.50;99.90;;;;;;4993951;28;20048;-81
2023/03/01 06:59:12;;;;;;;33.95;22.92;;;-1.50;99.90;;;;;;4989979;28;20088;-84
2023/03/01 07:01:39;;;;;;;34.65;24.23;;;-1.40;99.90;;;;;;5006806;28;20050;-83
2023/03/01 07:04:04;;;;;;;35.58;23.98;;;-1.40;99.90;;;;;;4989015;28;20066;-80
2023/03/01 07:06:30;;;;;;;37.35;26.50;;;-0.20;99.90;;;;;;4980893;28;20046;-81
2023/03/01 07:08:56;;;;;;;36.38;26.08;;;-1.20;99.90;;;;;;5001233;28;20097;-81
2023/03/01 07:11:23;;;;;;;33.35;23.90;;;-1.00;99.90;;;;;;5012921;28;20053;-81
2023/03/01 07:13:48;;;;;;;33.60;23.42;;;-0.90;99.90;;;;;;4997276;28;20053;-85
2023/03/01 07:16:14;;;;;;;29.85;22.15;;;-0.80;99.90;;;;;;5007247;28;20044;-81
2023/03/01 07:18:41;;;;;;;31.35;22.73;;;-0.80;99.90;;;;;;5013420;28;20132;-81
2023/03/01 07:21:08;;;;;;;30.70;22.40;;;-0.80;99.90;;;;;;5013417;28;20152;-80
2023/03/01 07:23:35;;;;;;;38.85;26.98;;;-0.80;99.90;;;;;;5013650;28;20104;-81
2023/03/01 07:26:01;;;;;;;33.22;23.80;;;-0.80;99.90;;;;;;5012316;28;20449;-81
2023/03/01 07:28:27;;;;;;;34.47;24.33;;;0.20;99.90;;;;;;5011311;28;20092;-81
2023/03/01 07:30:53;;;;;;;34.10;23.63;;;-0.60;99.90;;;;;;5005160;28;20125;-81
2023/03/01 07:33:19;;;;;;;35.30;23.35;;;-0.60;99.90;;;;;;5012989;28;20482;-81
2023/03/01 07:35:45;;;;;;;32.33;23.20;;;-0.40;99.90;;;;;;5012932;28;20133;-81
2023/03/01 07:38:11;;;;;;;31.02;23.20;;;0.00;99.90;;;;;;5013073;28;20133;-81
2023/03/01 07:40:37;;;;;;;36.92;25.33;;;-0.30;99.90;;;;;;5011585;28;20474;-81
2023/03/01 07:43:02;;;;;;;34.97;25.63;;;-0.20;99.90;;;;;;5011605;28;20100;-81
2023/03/01 07:45:29;;;;;;;33.75;24.83;;;0.10;99.90;;;;;;4996414;28;20486;-82
2023/03/01 07:47:55;;;;;;;36.83;26.65;;;0.30;99.90;;;;;;5007290;28;20129;-81
2023/03/01 07:50:22;;;;;;;38.33;27.17;;;0.30;99.90;;;;;;5006065;28;20285;-80
2023/03/01 07:52:49;;;;;;;33.97;25.95;;;0.40;99.90;;;;;;4994238;28;20044;-81
2023/03/01 07:55:16;;;;;;;38.53;27.95;;;0.50;99.90;;;;;;5011235;28;20053;-80
2023/03/01 07:57:42;;;;;;;35.53;27.60;;;0.70;99.90;;;;;;5012611;28;20058;-80
2023/03/01 08:00:10;;;;;;;39.67;28.75;;;1.00;99.90;;;;;;5010847;28;20578;-80
2023/03/01 08:02:36;;;;;;;45.42;32.05;;;1.00;99.90;;;;;;5008446;28;20520;-80
2023/03/01 08:05:01;;;;;;;39.30;30.98;;;1.20;99.90;;;;;;4995064;28;20046;-82
2023/03/01 08:07:27;;;;;;;38.45;28.65;;;1.30;99.90;;;;;;5012078;28;20053;-80
2023/03/01 08:09:53;;;;;;;43.78;31.20;;;1.40;99.90;;;;;;5010834;28;20065;-82
2023/03/01 08:12:19;;;;;;;42.67;30.75;;;1.40;99.90;;;;;;5003597;28;20100;-79
2023/03/01 08:14:44;;;;;;;42.05;30.52;;;1.30;99.90;;;;;;5006505;28;20478;-79
2023/03/01 08:17:13;;;;;;;39.65;29.35;;;1.80;99.90;;;;;;5011934;28;20527;-78
2023/03/01 08:19:38;;;;;;;41.72;30.98;;;1.40;99.90;;;;;;5011340;28;20057;-79
2023/03/01 08:22:04;;;;;;;38.22;27.90;;;1.40;99.90;;;;;;5007233;28;20038;-81
2023/03/01 08:24:30;;;;;;;37.20;27.13;;;1.60;99.90;;;;;;5009280;28;20038;-80
2023/03/01 08:26:56;;;;;;;39.15;26.90;;;1.70;99.90;;;;;;4995181;28;20049;-81
2023/03/01 08:29:22;;;;;;;34.92;25.35;;;1.80;99.90;;;;;;5007490;28;20050;-81
2023/03/01 08:31:48;;;;;;;30.70;22.77;;;1.90;99.90;;;;;;5009843;28;20049;-80
2023/03/01 08:34:16;;;;;;;33.10;23.40;;;2.00;99.90;;;;;;4976954;28;20056;-81
2023/03/01 08:36:44;;;;;;;30.95;23.85;;;2.00;99.90;;;;;;5012631;28;20048;-81
2023/03/01 08:39:12;;;;;;;31.35;23.80;;;2.00;99.90;;;;;;5012427;28;20398;-82
2023/03/01 08:41:38;;;;;;;28.73;21.70;;;2.30;99.90;;;;;;5011187;28;20457;-80
2023/03/01 08:44:04;;;;;;;32.20;24.85;;;2.40;99.90;;;;;;4995393;28;20049;-81
2023/03/01 08:46:35;;;;;;;29.75;24.08;;;2.60;99.90;;;;;;4992276;28;20048;-80
2023/03/01 08:49:08;;;;;;;29.15;22.30;;;2.90;99.90;;;;;;5006361;28;20054;-82
2023/03/01 08:51:36;;;;;;;22.50;16.95;;;3.20;99.90;;;;;;5008658;28;20125;-82
2023/03/01 08:54:07;;;;;;;23.88;18.15;;;3.30;99.90;;;;;;5009829;28;20057;-82
2023/03/01 08:56:33;;;;;;;21.85;15.68;;;3.30;99.90;;;;;;5007985;28;20124;-82
2023/03/01 08:58:59;;;;;;;18.40;14.30;;;3.40;99.90;;;;;;5012119;28;20046;-83
2023/03/01 09:01:25;;;;;;;21.30;15.18;;;3.70;99.90;;;;;;5009864;28;20390;-83
2023/03/01 09:03:51;;;;;;;19.48;14.57;;;4.00;99.90;;;;;;4996007;28;20498;-83
2023/03/01 09:06:17;;;;;;;25.13;18.42;;;4.10;99.90;;;;;;5012752;28;20050;-82
2023/03/01 09:08:49;;;;;;;23.00;17.58;;;4.20;99.90;;;;;;5012846;28;20100;-83
2023/03/01 09:11:18;;;;;;;19.77;15.65;;;4.60;99.90;;;;;;5000257;28;20502;-83
2023/03/01 09:13:45;;;;;;;17.13;11.98;;;5.00;99.90;;;;;;5012684;28;20042;-83
2023/03/01 09:16:12;;;;;;;21.15;15.13;;;5.10;99.90;;;;;;5012235;28;20046;-84
2023/03/01 09:18:38;;;;;;;20.55;16.63;;;5.20;99.90;;;;;;5011125;28;20057;-83
2023/03/01 09:21:13;;;;;;;18.42;15.15;;;5.30;99.90;;;;;;5005559;28;20066;-83
2023/03/01 09:23:41;;;;;;;17.50;13.52;;;5.30;99.90;;;;;;5005871;28;20042;-82
2023/03/01 09:26:12;;;;;;;18.90;14.75;;;5.30;99.90;;;;;;5009662;28;20207;-83
2023/03/01 09:28:38;;;;;;;18.38;14.73;;;5.30;99.90;;;;;;5012005;28;20046;-83
2023/03/01 09:31:05;;;;;;;18.40;14.15;;;5.30;99.90;;;;;;5008480;28;20052;-84
2023/03/01 09:33:32;;;;;;;17.45;13.80;;;5.40;99.90;;;;;;5001304;28;20093;-83
2023/03/01 09:36:04;;;;;;;16.38;12.68;;;5.60;99.90;;;;;;5003515;28;20057;-83
2023/03/01 09:38:30;;;;;;;15.30;10.98;;;5.70;99.90;;;;;;5007536;28;20048;-83
2023/03/01 09:40:56;;;;;;;16.88;11.82;;;5.70;99.90;;;;;;5001125;28;20129;-84
2023/03/01 09:43:46;;;;;;;16.70;11.38;;;5.80;99.90;;;;;;5004047;28;20188;-82
2023/03/01 09:46:17;;;;;;;14.80;10.73;;;5.80;99.90;;;;;;5008497;28;20061;-85
2023/03/01 09:48:51;;;;;;;15.60;10.80;;;5.90;99.90;;;;;;5008851;28;20433;-83
2023/03/01 09:51:29;;;;;;;14.45;9.45;;;6.00;99.90;;;;;;5002704;28;20281;-82
2023/03/01 09:53:56;;;;;;;12.40;7.75;;;6.20;99.90;;;;;;5031066;28;20048;-84
2023/03/01 09:56:34;;;;;;;11.82;7.45;;;6.30;99.90;;;;;;5007206;28;20041;-83
2023/03/01 09:59:18;;;;;;;11.20;8.25;;;6.40;99.90;;;;;;5008403;28;20059;-83
2023/03/01 10:02:16;;;;;;;11.50;8.15;;;6.40;99.90;;;;;;5011134;28;20045;-83
2023/03/01 10:04:47;;;;;;;12.20;8.10;;;6.50;99.90;;;;;;5002955;28;20053;-81
2023/03/01 10:07:38;;;;;;;11.43;7.70;;;6.50;99.90;;;;;;5017840;28;20053;-82
2023/03/01 10:10:08;;;;;;;11.68;7.60;;;6.60;99.90;;;;;;5017129;28;20366;-82
2023/03/01 10:12:41;;;;;;;11.82;7.55;;;6.60;99.90;;;;;;5005293;28;20455;-82
2023/03/01 10:15:27;;;;;;;11.40;7.65;;;6.60;99.30;;;;;;5017085;28;20049;-82
2023/03/01 10:18:02;;;;;;;11.20;7.75;;;6.70;99.90;;;;;;5017254;28;20053;-81
2023/03/01 10:20:55;;;;;;;12.65;8.40;;;6.80;99.90;;;;;;4998777;28;20725;-82
2023/03/01 10:23:24;;;;;;;11.43;7.53;;;6.80;99.90;;;;;;5017664;28;20485;-82
2023/03/01 10:26:17;;;;;;;9.65;6.15;;;6.90;99.90;;;;;;5023057;28;20045;-81
2023/03/01 10:28:54;;;;;;;9.57;5.72;;;7.00;97.90;;;;;;5016940;28;20048;-82
2023/03/01 10:31:37;;;;;;;10.25;6.80;;;6.90;98.00;;;;;;5016480;28;20054;-82
2023/03/01 10:34:13;;;;;;;10.18;6.03;;;6.90;97.20;;;;;;5002493;28;20060;-81
2023/03/01 10:36:41;;;;;;;11.15;6.18;;;7.00;98.40;;;;;;5017464;28;20187;-82
2023/03/01 10:39:14;;;;;;;10.20;6.80;;;7.20;98.30;;;;;;5017566;28;20436;-80
2023/03/01 10:42:04;;;;;;;11.10;7.40;;;7.10;97.60;;;;;;5016093;28;20053;-81
2023/03/01 10:44:40;;;;;;;11.32;6.75;;;7.10;98.40;;;;;;5017174;28;20103;-81
2023/03/01 10:47:23;;;;;;;10.10;6.65;;;7.30;97.70;;;;;;5026811;28;20054;-80
2023/03/01 10:49:55;;;;;;;10.55;6.05;;;7.20;95.80;;;;;;5001674;28;20064;-82
2023/03/01 10:52:24;;;;;;;10.15;5.57;;;7.30;95.40;;;;;;5042606;28;20048;-82
2023/03/01 10:54:56;;;;;;;9.30;5.60;;;7.30;93.50;;;;;;5012425;28;20494;-82
2023/03/01 10:57:39;;;;;;;9.27;5.25;;;7.30;94.90;;;;;;4998116;28;20049;-81
2023/03/01 11:00:22;;;;;;;8.98;4.80;;;7.30;93.10;;;;;;5012715;28;20050;-83
2023/03/01 11:03:11;;;;;;;7.97;5.13;;;7.30;92.10;;;;;;4994773;28;20136;-80
2023/03/01 11:05:49;;;;;;;7.82;4.20;;;7.40;92.70;;;;;;5008550;28;20558;-82
2023/03/01 11:08:28;;;;;;;9.40;5.30;;;7.40;91.30;;;;;;5011708;28;20049;-79
2023/03/01 11:11:12;;;;;;;8.52;4.55;;;7.20;91.20;;;;;;4999933;28;20481;-82
2023/03/01 11:14:06;;;;;;;8.13;4.60;;;7.20;91.70;;;;;;5032821;28;20076;-80
2023/03/01 11:16:40;;;;;;;7.95;4.43;;;7.20;93.20;;;;;;5016263;28;20387;-80
2023/03/01 11:19:09;;;;;;;8.00;4.25;;;7.30;93.00;;;;;;5012193;28;20073;-80
2023/03/01 11:21:41;;;;;;;6.63;4.10;;;7.30;92.10;;;;;;5030174;28;20481;-80
2023/03/01 11:24:14;;;;;;;7.13;3.65;;;7.30;91.20;;;;;;5005046;28;20038;-82
2023/03/01 11:26:50;;;;;;;7.97;4.05;;;7.40;91.40;;;;;;5010181;28;20042;-81
2023/03/01 11:29:27;;;;;;;7.13;4.32;;;7.50;90.10;;;;;;5006205;28;20106;-80
2023/03/01 11:31:58;;;;;;;9.05;4.20;;;7.40;90.40;;;;;;5016038;28;20496;-79
2023/03/01 11:34:59;;;;;;;9.02;4.72;;;7.40;89.90;;;;;;5016095;28;20052;-80
2023/03/01 11:37:44;;;;;;;8.93;4.85;;;7.30;90.50;;;;;;5011113;28;20049;-80
2023/03/01 11:40:26;;;;;;;8.70;4.40;;;7.50;91.20;;;;;;4989765;28;20075;-80
2023/03/01 11:42:56;;;;;;;8.90;4.40;;;7.30;91.20;;;;;;5001965;28;20084;-80
2023/03/01 11:45:26;;;;;;;9.32;5.03;;;7.40;90.40;;;;;;4996307;28;20087;-79
2023/03/01 11:48:07;;;;;;;8.98;5.18;;;7.40;91.70;;;;;;5000239;28;20053;-80
2023/03/01 11:50:43;;;;;;;8.85;5.57;;;7.50;91.60;;;;;;4998620;28;20437;-80
2023/03/01 11:53:42;;;;;;;8.70;5.32;;;7.50;92.20;;;;;;5011318;28;20053;-80
2023/03/01 11:56:25;;;;;;;8.65;5.50;;;7.60;90.90;;;;;;5005742;28;20058;-81
2023/03/01 11:59:19;;;;;;;11.30;6.15;;;7.40;91.50;;;;;;4999682;28;20063;-82
2023/03/01 12:01:51;;;;;;;9.90;6.90;;;7.70;91.60;;;;;;5005112;28;20495;-77
2023/03/01 12:04:45;;;;;;;34.33;19.20;;;7.50;90.10;;;;;;5012224;28;20398;-80
2023/03/01 12:07:13;;;;;;;10.75;6.93;;;7.60;91.30;;;;;;4996036;28;20057;-81
2023/03/01 12:10:27;;;;;;;16.75;10.20;;;7.50;91.90;;;;;;5002295;28;20045;-80
2023/03/01 12:13:35;;;;;;;11.55;8.07;;;7.70;92.70;;;;;;4980861;28;20054;-79
2023/03/01 12:16:26;;;;;;;10.77;7.03;;;7.70;91.30;;;;;;5012063;28;20375;-80
2023/03/01 12:19:07;;;;;;;12.63;6.80;;;7.70;91.80;;;;;;4979968;28;20557;-79
2023/03/01 12:22:09;;;;;;;10.77;5.60;;;7.80;91.80;;;;;;5008576;28;20359;-80
2023/03/01 12:25:05;;;;;;;11.65;7.45;;;8.20;91.30;;;;;;5011305;28;20564;-80
2023/03/01 12:28:03;;;;;;;10.65;7.40;;;7.90;92.00;;;;;;5002470;28;20064;-79
2023/03/01 12:30:37;;;;;;;12.30;7.75;;;7.80;91.50;;;;;;5012114;28;20045;-79
2023/03/01 12:33:16;;;;;;;11.52;7.10;;;7.70;91.20;;;;;;5007207;28;20054;-81
2023/03/01 12:36:00;;;;;;;10.30;6.97;;;7.80;91.60;;;;;;5009270;28;20050;-80
2023/03/01 12:38:50;;;;;;;11.00;6.45;;;7.90;92.00;;;;;;5009281;28;20041;-80
2023/03/01 12:41:39;;;;;;;11.05;7.68;;;8.10;91.30;;;;;;5016700;28;20046;-78
2023/03/01 12:44:11;;;;;;;11.48;7.18;;;7.70;91.60;;;;;;4954956;28;20136;-78
2023/03/01 12:47:02;;;;;;;11.50;7.13;;;7.80;91.40;;;;;;5009090;28;20068;-79
2023/03/01 12:49:53;;;;;;;11.55;7.40;;;7.90;91.10;;;;;;5015835;28;20054;-78
2023/03/01 12:52:46;;;;;;;10.57;7.25;;;8.00;90.80;;;;;;5008477;28;20391;-80
2023/03/01 12:55:30;;;;;;;;;;;7.80;91.60;;;;;;5023121;28;20046;-77
2023/03/01 12:58:21;;;;;;;13.60;8.20;;;7.70;91.10;;;;;;5025637;28;20320;-78